sensor_id;sensor_type;location;lat;lon;timestamp;P1;durP1;ratioP1;P2;durP2;ratioP2
1402;SDS011;696;48.546;9.896;2023-05-19T00:00:59;3.63;;;2.38;;
1402;SDS011;696;48.546;9.896;2023-05-19T00:03:25;3.95;;;2.60;;
1402;SDS011;696;48.546;9.896;2023-05-19T00:05:52;4.38;;;2.53;;
1402;SDS011;696;48.546;9.896;2023-05-19T00:08:17;5.03;;;2.13;;
1402;SDS011;696;48.546;9.896;2023-05-19T00:10:43;7.97;;;3.13;;
1402;SDS011;696;48.546;9.896;2023-05-19T00:13:09;5.28;;;2.53;;
1402;SDS011;696;48.546;9.896;2023-05-19T00:15:34;5.63;;;2.58;;
1402;SDS011;696;48.546;9.896;2023-05-19T00:18:00;5.75;;;2.63;;
1402;SDS011;696;48.546;9.896;2023-05-19T00:20:25;3.42;;;2.70;;
1402;SDS011;696;48.546;9.896;2023-05-19T00:22:51;5.57;;;2.40;;
1402;SDS011;696;48.546;9.896;2023-05-19T00:25:16;7.68;;;2.50;;
1402;SDS011;696;48.546;9.896;2023-05-19T00:27:41;5.07;;;2.90;;
1402;SDS011;696;48.546;9.896;2023-05-19T00:30:07;2.78;;;2.28;;
1402;SDS011;696;48.546;9.896;2023-05-19T00:32:33;6.32;;;2.70;;
1402;SDS011;696;48.546;9.896;2023-05-19T00:34:58;5.65;;;2.47;;
1402;SDS011;696;48.546;9.896;2023-05-19T00:37:24;8.05;;;3.03;;
1402;SDS011;696;48.546;9.896;2023-05-19T00:39:50;7.40;;;2.67;;
1402;SDS011;696;48.546;9.896;2023-05-19T00:42:15;4.95;;;3.08;;
1402;SDS011;696;48.546;9.896;2023-05-19T00:44:41;4.40;;;2.72;;
1402;SDS011;696;48.546;9.896;2023-05-19T00:47:09;8.20;;;2.65;;
1402;SDS011;696;48.546;9.896;2023-05-19T00:49:34;4.93;;;2.72;;
1402;SDS011;696;48.546;9.896;2023-05-19T00:52:00;5.68;;;2.95;;
1402;SDS011;696;48.546;9.896;2023-05-19T00:54:26;5.75;;;2.70;;
1402;SDS011;696;48.546;9.896;2023-05-19T00:56:53;5.82;;;3.08;;
1402;SDS011;696;48.546;9.896;2023-05-19T00:59:19;4.80;;;2.20;;
1402;SDS011;696;48.546;9.896;2023-05-19T01:01:44;6.07;;;3.00;;
1402;SDS011;696;48.546;9.896;2023-05-19T01:04:13;4.45;;;2.40;;
1402;SDS011;696;48.546;9.896;2023-05-19T01:06:42;4.88;;;2.70;;
1402;SDS011;696;48.546;9.896;2023-05-19T01:09:08;3.63;;;2.58;;
1402;SDS011;696;48.546;9.896;2023-05-19T01:11:33;3.72;;;2.30;;
1402;SDS011;696;48.546;9.896;2023-05-19T01:13:58;4.70;;;2.53;;
1402;SDS011;696;48.546;9.896;2023-05-19T01:16:28;3.92;;;2.72;;
1402;SDS011;696;48.546;9.896;2023-05-19T01:30:03;3.85;;;2.35;;
1402;SDS011;696;48.546;9.896;2023-05-19T01:32:30;3.17;;;2.22;;
1402;SDS011;696;48.546;9.896;2023-05-19T01:34:55;3.90;;;2.30;;
1402;SDS011;696;48.546;9.896;2023-05-19T01:37:21;9.30;;;2.88;;
1402;SDS011;696;48.546;9.896;2023-05-19T01:39:47;6.45;;;2.17;;
1402;SDS011;696;48.546;9.896;2023-05-19T01:42:14;5.57;;;2.60;;
1402;SDS011;696;48.546;9.896;2023-05-19T01:44:40;7.32;;;3.33;;
1402;SDS011;696;48.546;9.896;2023-05-19T01:47:06;3.40;;;2.63;;
1402;SDS011;696;48.546;9.896;2023-05-19T01:49:32;5.53;;;2.78;;
1402;SDS011;696;48.546;9.896;2023-05-19T01:51:58;4.38;;;2.22;;
1402;SDS011;696;48.546;9.896;2023-05-19T01:54:24;3.38;;;2.25;;
1402;SDS011;696;48.546;9.896;2023-05-19T02:02:42;5.13;;;2.85;;
1402;SDS011;696;48.546;9.896;2023-05-19T02:05:21;12.00;;;2.47;;
1402;SDS011;696;48.546;9.896;2023-05-19T02:08:03;5.05;;;2.97;;
1402;SDS011;696;48.546;9.896;2023-05-19T02:10:35;5.88;;;2.60;;
1402;SDS011;696;48.546;9.896;2023-05-19T02:13:03;5.40;;;2.53;;
1402;SDS011;696;48.546;9.896;2023-05-19T02:15:29;5.97;;;2.88;;
1402;SDS011;696;48.546;9.896;2023-05-19T02:18:08;3.58;;;2.53;;
1402;SDS011;696;48.546;9.896;2023-05-19T02:20:35;4.57;;;2.75;;
1402;SDS011;696;48.546;9.896;2023-05-19T02:23:00;3.88;;;2.67;;
1402;SDS011;696;48.546;9.896;2023-05-19T02:25:26;4.97;;;2.67;;
1402;SDS011;696;48.546;9.896;2023-05-19T02:27:51;7.93;;;3.40;;
1402;SDS011;696;48.546;9.896;2023-05-19T02:30:18;7.90;;;2.90;;
1402;SDS011;696;48.546;9.896;2023-05-19T02:32:44;11.45;;;3.03;;
1402;SDS011;696;48.546;9.896;2023-05-19T02:35:11;4.93;;;2.80;;
1402;SDS011;696;48.546;9.896;2023-05-19T02:37:37;4.90;;;2.63;;
1402;SDS011;696;48.546;9.896;2023-05-19T02:40:03;8.43;;;3.33;;
1402;SDS011;696;48.546;9.896;2023-05-19T02:42:29;6.75;;;3.38;;
1402;SDS011;696;48.546;9.896;2023-05-19T02:44:55;7.53;;;3.10;;
1402;SDS011;696;48.546;9.896;2023-05-19T02:47:20;4.75;;;3.00;;
1402;SDS011;696;48.546;9.896;2023-05-19T02:49:45;10.15;;;3.10;;
1402;SDS011;696;48.546;9.896;2023-05-19T02:52:11;6.93;;;3.17;;
1402;SDS011;696;48.546;9.896;2023-05-19T02:54:36;6.22;;;3.30;;
1402;SDS011;696;48.546;9.896;2023-05-19T02:57:02;7.60;;;2.83;;
1402;SDS011;696;48.546;9.896;2023-05-19T02:59:27;4.72;;;3.25;;
1402;SDS011;696;48.546;9.896;2023-05-19T03:01:59;8.90;;;3.40;;
1402;SDS011;696;48.546;9.896;2023-05-19T03:04:25;6.60;;;3.10;;
1402;SDS011;696;48.546;9.896;2023-05-19T03:06:51;7.50;;;2.90;;
1402;SDS011;696;48.546;9.896;2023-05-19T03:09:18;7.05;;;3.10;;
1402;SDS011;696;48.546;9.896;2023-05-19T03:11:43;6.43;;;2.78;;
1402;SDS011;696;48.546;9.896;2023-05-19T03:14:08;9.35;;;3.67;;
1402;SDS011;696;48.546;9.896;2023-05-19T03:16:34;12.35;;;3.33;;
1402;SDS011;696;48.546;9.896;2023-05-19T03:18:59;5.55;;;3.45;;
1402;SDS011;696;48.546;9.896;2023-05-19T03:21:25;7.35;;;3.67;;
1402;SDS011;696;48.546;9.896;2023-05-19T03:23:50;6.00;;;3.22;;
1402;SDS011;696;48.546;9.896;2023-05-19T03:26:16;18.15;;;3.03;;
1402;SDS011;696;48.546;9.896;2023-05-19T03:28:41;5.75;;;2.90;;
1402;SDS011;696;48.546;9.896;2023-05-19T03:31:06;6.40;;;3.17;;
1402;SDS011;696;48.546;9.896;2023-05-19T03:33:32;6.50;;;3.30;;
1402;SDS011;696;48.546;9.896;2023-05-19T03:35:57;4.82;;;2.90;;
1402;SDS011;696;48.546;9.896;2023-05-19T03:38:23;6.65;;;2.78;;
1402;SDS011;696;48.546;9.896;2023-05-19T03:40:48;6.05;;;2.83;;
1402;SDS011;696;48.546;9.896;2023-05-19T03:43:13;6.97;;;3.20;;
1402;SDS011;696;48.546;9.896;2023-05-19T03:45:40;4.95;;;2.90;;
1402;SDS011;696;48.546;9.896;2023-05-19T03:48:05;5.25;;;2.70;;
1402;SDS011;696;48.546;9.896;2023-05-19T03:50:31;5.55;;;2.75;;
1402;SDS011;696;48.546;9.896;2023-05-19T03:52:58;5.53;;;2.95;;
1402;SDS011;696;48.546;9.896;2023-05-19T03:55:23;4.80;;;2.72;;
1402;SDS011;696;48.546;9.896;2023-05-19T03:57:49;4.38;;;2.47;;
1402;SDS011;696;48.546;9.896;2023-05-19T04:00:16;8.35;;;3.03;;
1402;SDS011;696;48.546;9.896;2023-05-19T04:02:42;6.78;;;3.05;;
1402;SDS011;696;48.546;9.896;2023-05-19T04:05:07;5.78;;;2.50;;
1402;SDS011;696;48.546;9.896;2023-05-19T04:07:33;4.88;;;2.75;;
1402;SDS011;696;48.546;9.896;2023-05-19T04:09:58;3.58;;;2.47;;
1402;SDS011;696;48.546;9.896;2023-05-19T04:12:24;6.70;;;2.75;;
1402;SDS011;696;48.546;9.896;2023-05-19T04:14:49;6.75;;;3.35;;
1402;SDS011;696;48.546;9.896;2023-05-19T04:17:15;7.85;;;2.75;;
1402;SDS011;696;48.546;9.896;2023-05-19T04:19:40;6.47;;;2.88;;
1402;SDS011;696;48.546;9.896;2023-05-19T04:22:05;5.18;;;2.58;;
1402;SDS011;696;48.546;9.896;2023-05-19T04:24:31;4.50;;;2.55;;
1402;SDS011;696;48.546;9.896;2023-05-19T04:26:57;10.10;;;2.60;;
1402;SDS011;696;48.546;9.896;2023-05-19T04:29:26;6.07;;;2.60;;
1402;SDS011;696;48.546;9.896;2023-05-19T04:31:53;8.80;;;2.50;;
1402;SDS011;696;48.546;9.896;2023-05-19T04:34:19;9.82;;;2.72;;
1402;SDS011;696;48.546;9.896;2023-05-19T04:36:44;7.97;;;2.72;;
1402;SDS011;696;48.546;9.896;2023-05-19T04:39:09;4.65;;;2.78;;
1402;SDS011;696;48.546;9.896;2023-05-19T04:41:36;7.65;;;2.55;;
1402;SDS011;696;48.546;9.896;2023-05-19T04:44:04;4.90;;;2.78;;
1402;SDS011;696;48.546;9.896;2023-05-19T04:46:31;6.82;;;3.25;;
1402;SDS011;696;48.546;9.896;2023-05-19T04:48:56;5.97;;;2.42;;
1402;SDS011;696;48.546;9.896;2023-05-19T04:51:22;2.60;;;2.20;;
1402;SDS011;696;48.546;9.896;2023-05-19T04:53:52;6.03;;;2.63;;
1402;SDS011;696;48.546;9.896;2023-05-19T04:56:20;5.15;;;2.80;;
1402;SDS011;696;48.546;9.896;2023-05-19T04:58:46;5.47;;;3.05;;
1402;SDS011;696;48.546;9.896;2023-05-19T05:01:11;3.92;;;2.63;;
1402;SDS011;696;48.546;9.896;2023-05-19T05:03:37;5.45;;;3.05;;
1402;SDS011;696;48.546;9.896;2023-05-19T05:06:03;4.40;;;2.50;;
1402;SDS011;696;48.546;9.896;2023-05-19T05:08:28;7.00;;;2.95;;
1402;SDS011;696;48.546;9.896;2023-05-19T05:10:54;6.10;;;3.15;;
1402;SDS011;696;48.546;9.896;2023-05-19T05:13:20;15.10;;;3.13;;
1402;SDS011;696;48.546;9.896;2023-05-19T05:15:46;5.78;;;3.63;;
1402;SDS011;696;48.546;9.896;2023-05-19T05:18:12;7.07;;;3.60;;
1402;SDS011;696;48.546;9.896;2023-05-19T05:20:39;5.85;;;3.38;;
1402;SDS011;696;48.546;9.896;2023-05-19T05:23:06;6.53;;;4.88;;
1402;SDS011;696;48.546;9.896;2023-05-19T05:25:33;10.10;;;5.80;;
1402;SDS011;696;48.546;9.896;2023-05-19T05:27:59;9.65;;;6.03;;
1402;SDS011;696;48.546;9.896;2023-05-19T05:30:28;13.20;;;5.53;;
1402;SDS011;696;48.546;9.896;2023-05-19T05:32:54;9.85;;;5.82;;
1402;SDS011;696;48.546;9.896;2023-05-19T05:35:19;8.13;;;4.35;;
1402;SDS011;696;48.546;9.896;2023-05-19T05:37:47;4.60;;;3.28;;
1402;SDS011;696;48.546;9.896;2023-05-19T05:40:12;9.30;;;3.20;;
1402;SDS011;696;48.546;9.896;2023-05-19T05:42:38;7.10;;;3.28;;
1402;SDS011;696;48.546;9.896;2023-05-19T05:45:03;6.13;;;3.83;;
1402;SDS011;696;48.546;9.896;2023-05-19T05:47:29;7.32;;;3.85;;
1402;SDS011;696;48.546;9.896;2023-05-19T05:49:55;5.43;;;2.85;;
1402;SDS011;696;48.546;9.896;2023-05-19T05:52:20;4.68;;;2.83;;
1402;SDS011;696;48.546;9.896;2023-05-19T05:54:46;8.40;;;3.15;;
1402;SDS011;696;48.546;9.896;2023-05-19T05:57:12;13.63;;;4.60;;
1402;SDS011;696;48.546;9.896;2023-05-19T05:59:37;9.23;;;2.97;;
1402;SDS011;696;48.546;9.896;2023-05-19T06:02:04;8.30;;;3.13;;
1402;SDS011;696;48.546;9.896;2023-05-19T06:04:30;6.78;;;3.28;;
1402;SDS011;696;48.546;9.896;2023-05-19T06:06:56;8.02;;;3.42;;
1402;SDS011;696;48.546;9.896;2023-05-19T06:09:25;6.32;;;3.08;;
1402;SDS011;696;48.546;9.896;2023-05-19T06:11:50;5.10;;;3.08;;
1402;SDS011;696;48.546;9.896;2023-05-19T06:14:16;5.47;;;2.75;;
1402;SDS011;696;48.546;9.896;2023-05-19T06:16:41;8.10;;;2.97;;
1402;SDS011;696;48.546;9.896;2023-05-19T06:19:06;18.70;;;4.20;;
1402;SDS011;696;48.546;9.896;2023-05-19T06:21:32;8.32;;;3.38;;
1402;SDS011;696;48.546;9.896;2023-05-19T06:23:57;12.40;;;3.22;;
1402;SDS011;696;48.546;9.896;2023-05-19T06:26:22;6.32;;;3.30;;
1402;SDS011;696;48.546;9.896;2023-05-19T06:28:48;9.68;;;3.25;;
1402;SDS011;696;48.546;9.896;2023-05-19T06:31:13;7.90;;;3.15;;
1402;SDS011;696;48.546;9.896;2023-05-19T06:33:38;5.10;;;3.10;;
1402;SDS011;696;48.546;9.896;2023-05-19T06:36:04;11.52;;;3.33;;
1402;SDS011;696;48.546;9.896;2023-05-19T06:38:29;8.90;;;3.22;;
1402;SDS011;696;48.546;9.896;2023-05-19T06:40:55;3.97;;;2.42;;
1402;SDS011;696;48.546;9.896;2023-05-19T06:43:22;7.38;;;3.15;;
1402;SDS011;696;48.546;9.896;2023-05-19T06:45:49;7.05;;;3.13;;
1402;SDS011;696;48.546;9.896;2023-05-19T06:48:15;13.02;;;3.17;;
1402;SDS011;696;48.546;9.896;2023-05-19T06:50:40;6.78;;;3.00;;
1402;SDS011;696;48.546;9.896;2023-05-19T06:53:05;4.40;;;2.90;;
1402;SDS011;696;48.546;9.896;2023-05-19T06:55:31;5.15;;;3.10;;
1402;SDS011;696;48.546;9.896;2023-05-19T06:57:56;4.57;;;2.70;;
1402;SDS011;696;48.546;9.896;2023-05-19T07:00:22;4.75;;;3.20;;
1402;SDS011;696;48.546;9.896;2023-05-19T07:02:47;11.70;;;3.85;;
1402;SDS011;696;48.546;9.896;2023-05-19T07:05:12;6.32;;;3.15;;
1402;SDS011;696;48.546;9.896;2023-05-19T07:07:38;5.75;;;3.47;;
1402;SDS011;696;48.546;9.896;2023-05-19T07:10:03;10.63;;;3.10;;
1402;SDS011;696;48.546;9.896;2023-05-19T07:12:29;5.35;;;2.97;;
1402;SDS011;696;48.546;9.896;2023-05-19T07:14:54;4.80;;;2.78;;
1402;SDS011;696;48.546;9.896;2023-05-19T07:17:20;7.80;;;3.40;;
1402;SDS011;696;48.546;9.896;2023-05-19T07:19:45;5.25;;;2.72;;
1402;SDS011;696;48.546;9.896;2023-05-19T07:22:10;11.73;;;3.33;;
1402;SDS011;696;48.546;9.896;2023-05-19T07:24:36;7.60;;;3.08;;
1402;SDS011;696;48.546;9.896;2023-05-19T07:27:01;8.23;;;3.03;;
1402;SDS011;696;48.546;9.896;2023-05-19T07:29:26;6.35;;;2.90;;
1402;SDS011;696;48.546;9.896;2023-05-19T07:31:52;6.50;;;3.22;;
1402;SDS011;696;48.546;9.896;2023-05-19T07:34:21;3.05;;;2.58;;
1402;SDS011;696;48.546;9.896;2023-05-19T07:36:47;5.57;;;2.72;;
1402;SDS011;696;48.546;9.896;2023-05-19T07:39:12;8.10;;;2.92;;
1402;SDS011;696;48.546;9.896;2023-05-19T07:41:38;3.78;;;2.47;;
1402;SDS011;696;48.546;9.896;2023-05-19T07:44:03;5.32;;;2.95;;
1402;SDS011;696;48.546;9.896;2023-05-19T07:46:31;10.55;;;3.17;;
1402;SDS011;696;48.546;9.896;2023-05-19T07:48:59;3.88;;;2.45;;
1402;SDS011;696;48.546;9.896;2023-05-19T07:51:25;7.68;;;3.22;;
1402;SDS011;696;48.546;9.896;2023-05-19T07:53:50;5.10;;;2.72;;
1402;SDS011;696;48.546;9.896;2023-05-19T07:56:16;4.63;;;2.88;;
1402;SDS011;696;48.546;9.896;2023-05-19T07:58:42;4.22;;;2.70;;
1402;SDS011;696;48.546;9.896;2023-05-19T08:01:07;10.32;;;2.78;;
1402;SDS011;696;48.546;9.896;2023-05-19T08:03:33;4.60;;;2.70;;
1402;SDS011;696;48.546;9.896;2023-05-19T08:05:58;7.25;;;2.85;;
1402;SDS011;696;48.546;9.896;2023-05-19T08:08:24;5.35;;;2.55;;
1402;SDS011;696;48.546;9.896;2023-05-19T08:10:49;5.38;;;2.75;;
1402;SDS011;696;48.546;9.896;2023-05-19T08:13:15;10.68;;;3.08;;
1402;SDS011;696;48.546;9.896;2023-05-19T08:15:40;8.82;;;4.13;;
1402;SDS011;696;48.546;9.896;2023-05-19T08:18:06;5.80;;;3.15;;
1402;SDS011;696;48.546;9.896;2023-05-19T08:20:31;9.27;;;4.43;;
1402;SDS011;696;48.546;9.896;2023-05-19T08:22:57;7.95;;;3.50;;
1402;SDS011;696;48.546;9.896;2023-05-19T08:25:23;7.63;;;2.80;;
1402;SDS011;696;48.546;9.896;2023-05-19T08:27:48;5.65;;;2.58;;
1402;SDS011;696;48.546;9.896;2023-05-19T08:30:15;5.65;;;3.10;;
1402;SDS011;696;48.546;9.896;2023-05-19T08:32:40;7.80;;;2.70;;
1402;SDS011;696;48.546;9.896;2023-05-19T08:35:06;6.10;;;2.88;;
1402;SDS011;696;48.546;9.896;2023-05-19T08:37:32;4.57;;;2.45;;
1402;SDS011;696;48.546;9.896;2023-05-19T08:39:58;3.78;;;2.30;;
1402;SDS011;696;48.546;9.896;2023-05-19T08:42:23;5.15;;;2.83;;
1402;SDS011;696;48.546;9.896;2023-05-19T08:44:48;6.20;;;2.78;;
1402;SDS011;696;48.546;9.896;2023-05-19T08:47:14;7.05;;;3.22;;
1402;SDS011;696;48.546;9.896;2023-05-19T08:49:43;4.90;;;3.30;;
1402;SDS011;696;48.546;9.896;2023-05-19T08:52:16;7.05;;;3.00;;
1402;SDS011;696;48.546;9.896;2023-05-19T08:55:03;4.18;;;2.53;;
1402;SDS011;696;48.546;9.896;2023-05-19T08:57:31;9.32;;;3.40;;
1402;SDS011;696;48.546;9.896;2023-05-19T08:59:56;9.43;;;2.85;;
1402;SDS011;696;48.546;9.896;2023-05-19T09:02:22;12.50;;;2.78;;
1402;SDS011;696;48.546;9.896;2023-05-19T09:04:48;5.78;;;2.70;;
1402;SDS011;696;48.546;9.896;2023-05-19T09:07:13;3.42;;;2.35;;
1402;SDS011;696;48.546;9.896;2023-05-19T09:09:39;3.78;;;2.58;;
1402;SDS011;696;48.546;9.896;2023-05-19T09:12:07;3.90;;;2.40;;
1402;SDS011;696;48.546;9.896;2023-05-19T09:14:34;7.13;;;2.60;;
1402;SDS011;696;48.546;9.896;2023-05-19T09:17:00;3.85;;;2.65;;
1402;SDS011;696;48.546;9.896;2023-05-19T09:19:29;4.63;;;2.47;;
1402;SDS011;696;48.546;9.896;2023-05-19T09:22:01;7.95;;;3.00;;
1402;SDS011;696;48.546;9.896;2023-05-19T09:24:29;4.38;;;2.50;;
1402;SDS011;696;48.546;9.896;2023-05-19T09:26:55;4.55;;;2.50;;
1402;SDS011;696;48.546;9.896;2023-05-19T09:29:21;5.45;;;2.63;;
1402;SDS011;696;48.546;9.896;2023-05-19T09:31:53;9.23;;;2.63;;
1402;SDS011;696;48.546;9.896;2023-05-19T09:34:24;3.30;;;2.30;;
1402;SDS011;696;48.546;9.896;2023-05-19T09:36:51;6.72;;;2.63;;
1402;SDS011;696;48.546;9.896;2023-05-19T09:39:21;4.75;;;2.63;;
1402;SDS011;696;48.546;9.896;2023-05-19T09:41:54;5.18;;;2.67;;
1402;SDS011;696;48.546;9.896;2023-05-19T09:46:53;2.30;;;1.88;;
1402;SDS011;696;48.546;9.896;2023-05-19T09:49:19;6.68;;;3.10;;
1402;SDS011;696;48.546;9.896;2023-05-19T09:51:47;6.80;;;3.13;;
1402;SDS011;696;48.546;9.896;2023-05-19T09:54:23;7.85;;;3.33;;
1402;SDS011;696;48.546;9.896;2023-05-19T09:59:23;8.75;;;3.83;;
1402;SDS011;696;48.546;9.896;2023-05-19T10:01:49;7.28;;;2.78;;
1402;SDS011;696;48.546;9.896;2023-05-19T10:04:27;4.97;;;2.55;;
1402;SDS011;696;48.546;9.896;2023-05-19T10:06:54;3.20;;;2.25;;
1402;SDS011;696;48.546;9.896;2023-05-19T10:09:23;5.00;;;2.83;;
1402;SDS011;696;48.546;9.896;2023-05-19T10:11:57;3.05;;;2.20;;
1402;SDS011;696;48.546;9.896;2023-05-19T10:14:26;4.00;;;2.33;;
1402;SDS011;696;48.546;9.896;2023-05-19T10:16:53;3.65;;;2.10;;
1402;SDS011;696;48.546;9.896;2023-05-19T10:19:26;2.38;;;1.90;;
1402;SDS011;696;48.546;9.896;2023-05-19T10:21:52;4.82;;;2.20;;
1402;SDS011;696;48.546;9.896;2023-05-19T10:24:18;3.72;;;2.40;;
1402;SDS011;696;48.546;9.896;2023-05-19T10:27:06;3.63;;;2.20;;
1402;SDS011;696;48.546;9.896;2023-05-19T10:29:32;4.60;;;2.47;;
1402;SDS011;696;48.546;9.896;2023-05-19T10:32:12;2.78;;;2.03;;
1402;SDS011;696;48.546;9.896;2023-05-19T10:40:39;3.97;;;1.90;;
1402;SDS011;696;48.546;9.896;2023-05-19T10:43:16;5.65;;;2.78;;
1402;SDS011;696;48.546;9.896;2023-05-19T10:46:04;3.42;;;2.13;;
1402;SDS011;696;48.546;9.896;2023-05-19T10:48:33;5.68;;;2.83;;
1402;SDS011;696;48.546;9.896;2023-05-19T10:51:02;3.75;;;2.20;;
1402;SDS011;696;48.546;9.896;2023-05-19T10:53:31;2.33;;;2.13;;
1402;SDS011;696;48.546;9.896;2023-05-19T10:55:57;4.93;;;2.45;;
1402;SDS011;696;48.546;9.896;2023-05-19T10:58:38;3.55;;;2.22;;
1402;SDS011;696;48.546;9.896;2023-05-19T11:01:13;5.07;;;2.72;;
1402;SDS011;696;48.546;9.896;2023-05-19T11:06:23;4.72;;;2.75;;
1402;SDS011;696;48.546;9.896;2023-05-19T11:08:52;4.53;;;2.55;;
1402;SDS011;696;48.546;9.896;2023-05-19T11:11:18;6.68;;;2.58;;
1402;SDS011;696;48.546;9.896;2023-05-19T11:13:51;3.67;;;2.65;;
1402;SDS011;696;48.546;9.896;2023-05-19T11:16:25;2.85;;;2.55;;
1402;SDS011;696;48.546;9.896;2023-05-19T11:18:54;6.80;;;3.22;;
1402;SDS011;696;48.546;9.896;2023-05-19T11:21:20;5.13;;;3.05;;
1402;SDS011;696;48.546;9.896;2023-05-19T11:23:45;5.50;;;3.67;;
1402;SDS011;696;48.546;9.896;2023-05-19T11:26:11;9.82;;;3.60;;
1402;SDS011;696;48.546;9.896;2023-05-19T11:28:36;4.03;;;2.88;;
1402;SDS011;696;48.546;9.896;2023-05-19T11:31:03;5.70;;;3.50;;
1402;SDS011;696;48.546;9.896;2023-05-19T11:33:31;6.95;;;3.25;;
1402;SDS011;696;48.546;9.896;2023-05-19T11:35:57;5.22;;;3.90;;
1402;SDS011;696;48.546;9.896;2023-05-19T11:38:23;4.30;;;3.00;;
1402;SDS011;696;48.546;9.896;2023-05-19T11:40:51;5.05;;;3.05;;
1402;SDS011;696;48.546;9.896;2023-05-19T11:43:17;6.82;;;3.78;;
1402;SDS011;696;48.546;9.896;2023-05-19T11:45:42;4.93;;;3.45;;
1402;SDS011;696;48.546;9.896;2023-05-19T11:48:11;3.72;;;2.85;;
1402;SDS011;696;48.546;9.896;2023-05-19T11:50:37;5.72;;;3.90;;
1402;SDS011;696;48.546;9.896;2023-05-19T11:53:05;6.40;;;3.78;;
1402;SDS011;696;48.546;9.896;2023-05-19T11:55:30;4.45;;;2.83;;
1402;SDS011;696;48.546;9.896;2023-05-19T12:00:25;3.83;;;3.20;;
1402;SDS011;696;48.546;9.896;2023-05-19T12:02:51;6.00;;;3.38;;
1402;SDS011;696;48.546;9.896;2023-05-19T12:05:18;4.15;;;3.13;;
1402;SDS011;696;48.546;9.896;2023-05-19T12:07:47;11.90;;;3.60;;
1402;SDS011;696;48.546;9.896;2023-05-19T12:10:17;6.15;;;3.53;;
1402;SDS011;696;48.546;9.896;2023-05-19T12:12:45;13.40;;;3.97;;
1402;SDS011;696;48.546;9.896;2023-05-19T12:15:11;7.57;;;3.92;;
1402;SDS011;696;48.546;9.896;2023-05-19T12:17:36;6.35;;;3.50;;
1402;SDS011;696;48.546;9.896;2023-05-19T12:20:02;12.05;;;3.65;;
1402;SDS011;696;48.546;9.896;2023-05-19T12:22:28;5.03;;;3.30;;
1402;SDS011;696;48.546;9.896;2023-05-19T12:24:54;5.50;;;3.35;;
1402;SDS011;696;48.546;9.896;2023-05-19T12:27:22;6.45;;;3.58;;
1402;SDS011;696;48.546;9.896;2023-05-19T12:29:48;6.47;;;3.42;;
1402;SDS011;696;48.546;9.896;2023-05-19T12:32:14;10.48;;;3.35;;
1402;SDS011;696;48.546;9.896;2023-05-19T12:34:40;5.78;;;3.03;;
1402;SDS011;696;48.546;9.896;2023-05-19T12:37:07;4.57;;;3.20;;
1402;SDS011;696;48.546;9.896;2023-05-19T12:39:34;7.15;;;3.78;;
1402;SDS011;696;48.546;9.896;2023-05-19T12:42:03;3.45;;;2.63;;
1402;SDS011;696;48.546;9.896;2023-05-19T12:44:35;11.60;;;3.33;;
1402;SDS011;696;48.546;9.896;2023-05-19T12:47:10;8.32;;;4.03;;
1402;SDS011;696;48.546;9.896;2023-05-19T12:49:37;4.38;;;3.05;;
1402;SDS011;696;48.546;9.896;2023-05-19T12:52:17;5.00;;;2.80;;
1402;SDS011;696;48.546;9.896;2023-05-19T12:54:43;12.18;;;3.40;;
1402;SDS011;696;48.546;9.896;2023-05-19T12:57:09;11.48;;;3.30;;
1402;SDS011;696;48.546;9.896;2023-05-19T12:59:34;4.07;;;3.05;;
1402;SDS011;696;48.546;9.896;2023-05-19T13:02:00;6.38;;;3.40;;
1402;SDS011;696;48.546;9.896;2023-05-19T13:04:26;5.20;;;2.90;;
1402;SDS011;696;48.546;9.896;2023-05-19T13:06:52;8.35;;;3.20;;
1402;SDS011;696;48.546;9.896;2023-05-19T13:09:18;5.65;;;3.50;;
1402;SDS011;696;48.546;9.896;2023-05-19T13:11:44;5.45;;;3.28;;
1402;SDS011;696;48.546;9.896;2023-05-19T13:14:15;5.57;;;2.63;;
1402;SDS011;696;48.546;9.896;2023-05-19T13:16:43;5.18;;;3.05;;
1402;SDS011;696;48.546;9.896;2023-05-19T13:19:10;8.20;;;3.33;;
1402;SDS011;696;48.546;9.896;2023-05-19T13:21:39;6.72;;;3.15;;
1402;SDS011;696;48.546;9.896;2023-05-19T13:24:04;3.55;;;2.85;;
1402;SDS011;696;48.546;9.896;2023-05-19T13:26:29;4.07;;;2.42;;
1402;SDS011;696;48.546;9.896;2023-05-19T13:28:55;6.72;;;3.25;;
1402;SDS011;696;48.546;9.896;2023-05-19T13:31:20;5.82;;;2.90;;
1402;SDS011;696;48.546;9.896;2023-05-19T13:33:46;4.30;;;2.80;;
1402;SDS011;696;48.546;9.896;2023-05-19T13:36:11;5.68;;;2.90;;
1402;SDS011;696;48.546;9.896;2023-05-19T13:38:36;6.32;;;3.00;;
1402;SDS011;696;48.546;9.896;2023-05-19T13:41:02;5.35;;;3.13;;
1402;SDS011;696;48.546;9.896;2023-05-19T13:43:27;4.32;;;2.55;;
1402;SDS011;696;48.546;9.896;2023-05-19T13:45:52;3.55;;;2.42;;
1402;SDS011;696;48.546;9.896;2023-05-19T13:48:18;4.53;;;2.65;;
1402;SDS011;696;48.546;9.896;2023-05-19T13:50:43;3.25;;;2.63;;
1402;SDS011;696;48.546;9.896;2023-05-19T13:53:08;5.20;;;2.72;;
1402;SDS011;696;48.546;9.896;2023-05-19T13:55:35;5.82;;;3.10;;
1402;SDS011;696;48.546;9.896;2023-05-19T13:58:00;5.32;;;3.10;;
1402;SDS011;696;48.546;9.896;2023-05-19T14:00:27;6.82;;;2.92;;
1402;SDS011;696;48.546;9.896;2023-05-19T14:02:52;6.95;;;3.10;;
1402;SDS011;696;48.546;9.896;2023-05-19T14:05:18;7.70;;;3.13;;
1402;SDS011;696;48.546;9.896;2023-05-19T14:07:43;3.08;;;2.63;;
1402;SDS011;696;48.546;9.896;2023-05-19T14:10:09;5.45;;;3.33;;
1402;SDS011;696;48.546;9.896;2023-05-19T14:12:34;5.32;;;3.40;;
1402;SDS011;696;48.546;9.896;2023-05-19T14:15:00;4.55;;;2.45;;
1402;SDS011;696;48.546;9.896;2023-05-19T14:17:26;6.28;;;2.60;;
1402;SDS011;696;48.546;9.896;2023-05-19T14:19:52;4.10;;;2.30;;
1402;SDS011;696;48.546;9.896;2023-05-19T14:22:17;4.63;;;2.38;;
1402;SDS011;696;48.546;9.896;2023-05-19T14:24:43;3.83;;;2.50;;
1402;SDS011;696;48.546;9.896;2023-05-19T14:27:09;5.63;;;2.75;;
1402;SDS011;696;48.546;9.896;2023-05-19T14:29:34;4.60;;;2.33;;
1402;SDS011;696;48.546;9.896;2023-05-19T14:31:59;3.83;;;2.10;;
1402;SDS011;696;48.546;9.896;2023-05-19T14:34:26;4.85;;;2.70;;
1402;SDS011;696;48.546;9.896;2023-05-19T14:36:51;3.65;;;2.65;;
1402;SDS011;696;48.546;9.896;2023-05-19T14:39:17;6.65;;;3.05;;
1402;SDS011;696;48.546;9.896;2023-05-19T14:41:42;8.27;;;3.33;;
1402;SDS011;696;48.546;9.896;2023-05-19T14:44:08;4.22;;;2.85;;
1402;SDS011;696;48.546;9.896;2023-05-19T14:46:33;5.25;;;2.58;;
1402;SDS011;696;48.546;9.896;2023-05-19T14:48:58;5.28;;;2.78;;
1402;SDS011;696;48.546;9.896;2023-05-19T14:51:24;4.38;;;2.80;;
1402;SDS011;696;48.546;9.896;2023-05-19T14:53:49;5.30;;;2.60;;
1402;SDS011;696;48.546;9.896;2023-05-19T14:56:15;4.63;;;2.60;;
1402;SDS011;696;48.546;9.896;2023-05-19T14:58:40;4.75;;;2.50;;
1402;SDS011;696;48.546;9.896;2023-05-19T15:01:05;4.15;;;2.85;;
1402;SDS011;696;48.546;9.896;2023-05-19T15:03:31;5.00;;;2.63;;
1402;SDS011;696;48.546;9.896;2023-05-19T15:05:56;3.40;;;2.35;;
1402;SDS011;696;48.546;9.896;2023-05-19T15:08:22;4.85;;;2.83;;
1402;SDS011;696;48.546;9.896;2023-05-19T15:10:47;3.60;;;2.17;;
1402;SDS011;696;48.546;9.896;2023-05-19T15:13:13;3.78;;;2.55;;
1402;SDS011;696;48.546;9.896;2023-05-19T15:15:39;4.93;;;2.50;;
1402;SDS011;696;48.546;9.896;2023-05-19T15:18:04;3.78;;;2.28;;
1402;SDS011;696;48.546;9.896;2023-05-19T15:20:29;4.72;;;3.03;;
1402;SDS011;696;48.546;9.896;2023-05-19T15:22:55;3.22;;;2.33;;
1402;SDS011;696;48.546;9.896;2023-05-19T15:25:20;3.92;;;2.10;;
1402;SDS011;696;48.546;9.896;2023-05-19T15:27:45;3.38;;;2.40;;
1402;SDS011;696;48.546;9.896;2023-05-19T15:30:11;7.20;;;2.70;;
1402;SDS011;696;48.546;9.896;2023-05-19T15:32:37;8.85;;;3.15;;
1402;SDS011;696;48.546;9.896;2023-05-19T15:35:02;5.68;;;2.55;;
1402;SDS011;696;48.546;9.896;2023-05-19T15:37:27;5.03;;;2.70;;
1402;SDS011;696;48.546;9.896;2023-05-19T15:39:53;12.07;;;2.97;;
1402;SDS011;696;48.546;9.896;2023-05-19T15:42:19;3.72;;;2.38;;
1402;SDS011;696;48.546;9.896;2023-05-19T15:44:44;12.90;;;2.63;;
1402;SDS011;696;48.546;9.896;2023-05-19T15:47:10;3.92;;;2.40;;
1402;SDS011;696;48.546;9.896;2023-05-19T15:49:35;3.90;;;2.53;;
1402;SDS011;696;48.546;9.896;2023-05-19T15:52:01;5.40;;;2.50;;
1402;SDS011;696;48.546;9.896;2023-05-19T15:54:27;7.13;;;2.95;;
1402;SDS011;696;48.546;9.896;2023-05-19T15:56:52;12.75;;;2.45;;
1402;SDS011;696;48.546;9.896;2023-05-19T15:59:18;6.03;;;3.20;;